Time;durP1;ratioP1;P1;durP2;ratioP2;P2;SDS_P1;SDS_P2;PMS_P1;PMS_P2;Temp;Humidity;BMP_temperature;BMP_pressure;BME280_temperature;BME280_humidity;BME280_pressure;Samples;Min_cycle;Max_cycle;Signal;HPM_P1;HPM_P2
2022/01/28 00:00:09;;;;;;;22.33;15.50;;;;;;;0.44;74.88;100092.03;5095924;28;20468;-65
2022/01/28 00:02:56;;;;;;;28.23;16.10;;;;;;;0.37;75.00;100098.72;5096410;28;20432;-66
2022/01/28 00:05:23;;;;;;;34.30;18.97;;;;;;;0.28;75.08;100098.56;5095675;28;20832;-66
2022/01/28 00:07:51;;;;;;;26.00;16.87;;;;;;;0.24;75.34;100091.91;5095168;28;20533;-66
2022/01/28 00:10:19;;;;;;;27.50;17.37;;;;;;;0.27;75.19;100089.03;5095911;28;20441;-66
2022/01/28 00:15:35;;;;;;;34.03;19.20;;;;;;;0.35;75.03;100084.91;5087947;28;20797;-66
2022/01/28 00:37:26;;;;;;;27.47;17.07;;;;;;;0.68;73.83;100076.25;5095556;28;20773;-67
2022/01/28 00:39:53;;;;;;;25.73;17.03;;;;;;;0.69;73.35;100076.13;5095144;28;20436;-66
2022/01/28 00:42:19;;;;;;;26.87;17.33;;;;;;;0.67;73.69;100070.19;5094493;28;20441;-66
2022/01/28 00:44:46;;;;;;;23.77;16.83;;;;;;;0.66;73.65;100058.09;5093297;28;21031;-66
2022/01/28 00:47:13;;;;;;;24.77;16.90;;;;;;;0.70;73.52;100059.50;5094210;28;20976;-66
2022/01/28 00:49:41;;;;;;;29.43;17.83;;;;;;;0.68;73.44;100065.78;5094662;28;20441;-66
2022/01/28 00:52:07;;;;;;;27.60;17.20;;;;;;;0.64;73.66;100059.97;5094560;28;20493;-66
2022/01/28 00:54:34;;;;;;;29.07;17.73;;;;;;;0.53;73.59;100059.97;5095112;28;20845;-66
2022/01/28 00:57:01;;;;;;;26.87;16.10;;;;;;;0.48;73.46;100048.25;5094744;28;20437;-66
2022/01/28 00:59:27;;;;;;;25.83;15.97;;;;;;;0.39;73.69;100049.75;5094390;28;20444;-65
2022/01/28 01:01:54;;;;;;;24.77;15.87;;;;;;;0.36;73.81;100050.00;5094427;28;20522;-65
2022/01/28 01:04:22;;;;;;;26.63;16.57;;;;;;;0.32;73.98;100032.91;5094426;28;20456;-65
2022/01/28 01:06:50;;;;;;;26.03;16.97;;;;;;;0.37;73.87;100035.16;5093898;28;20470;-66
2022/01/28 01:09:17;;;;;;;23.43;15.87;;;;;;;0.34;74.04;100038.84;5094293;28;20516;-66
2022/01/28 01:11:43;;;;;;;24.77;15.80;;;;;;;0.04;75.08;100033.34;5094489;28;20439;-66
2022/01/28 01:14:11;;;;;;;19.40;14.10;;;;;;;-0.01;75.76;100025.88;5094941;28;20515;-66
2022/01/28 01:16:48;;;;;;;22.73;15.77;;;;;;;0.06;75.41;100015.78;5093769;28;20445;-66
2022/01/28 01:19:20;;;;;;;24.30;15.30;;;;;;;-0.11;76.29;100001.41;5094371;28;20763;-66
2022/01/28 01:21:53;;;;;;;20.00;14.33;;;;;;;-0.22;76.60;100001.41;5093762;28;20917;-66
2022/01/28 01:24:23;;;;;;;18.80;13.70;;;;;;;-0.15;77.17;99991.31;5094295;28;20425;-66
2022/01/28 01:26:50;;;;;;;23.77;15.40;;;;;;;-0.08;76.38;99987.31;5093570;28;21006;-67
2022/01/28 01:29:19;;;;;;;22.77;13.87;;;;;;;-0.04;75.78;99970.47;5094225;28;20441;-66
2022/01/28 01:31:47;;;;;;;19.17;13.97;;;;;;;-0.08;75.82;99969.03;5093846;28;20442;-66
2022/01/28 01:34:16;;;;;;;19.07;14.07;;;;;;;0.02;75.42;99959.53;5094378;28;20480;-67
2022/01/28 01:36:44;;;;;;;18.87;13.57;;;;;;;0.00;75.09;99964.06;5093391;28;20956;-66
2022/01/28 01:39:15;;;;;;;21.47;12.57;;;;;;;0.17;74.80;99955.75;5093697;28;20499;-66
2022/01/28 01:41:48;;;;;;;17.63;13.00;;;;;;;0.35;74.27;99953.44;5093724;28;20458;-67
2022/01/28 01:44:29;;;;;;;19.57;12.70;;;;;;;0.44;73.70;99952.75;5093977;28;20432;-66
2022/01/28 01:52:41;;;;;;;20.57;13.37;;;;;;;0.64;72.26;99939.75;5093549;28;20832;-66
2022/01/28 01:55:08;;;;;;;19.17;13.00;;;;;;;0.66;72.54;99943.09;5093147;28;20441;-66
2022/01/28 01:57:36;;;;;;;22.30;14.13;;;;;;;0.70;71.82;99928.81;5093004;28;20445;-66
2022/01/28 02:00:05;;;;;;;19.10;12.60;;;;;;;0.70;71.99;99923.59;5093352;28;20433;-67
2022/01/28 02:02:32;;;;;;;13.93;12.10;;;;;;;0.65;71.92;99919.69;5093726;28;20491;-66
2022/01/28 02:04:58;;;;;;;14.03;12.37;;;;;;;0.65;71.97;99915.25;5093178;28;20445;-67
2022/01/28 02:07:26;;;;;;;15.23;12.10;;;;;;;0.66;71.54;99916.94;5092727;28;20509;-67
2022/01/28 02:09:53;;;;;;;13.23;11.83;;;;;;;0.66;71.43;99919.56;5092833;28;20445;-67
2022/01/28 02:12:19;;;;;;;16.53;11.83;;;;;;;0.68;71.14;99909.78;5093584;28;20513;-68
2022/01/28 02:14:48;;;;;;;18.20;13.87;;;;;;;0.68;70.83;99904.56;5093092;28;20494;-66
2022/01/28 02:17:14;;;;;;;17.17;12.93;;;;;;;0.65;70.51;99899.59;5093193;28;20441;-68
2022/01/28 02:19:41;;;;;;;27.87;17.10;;;;;;;0.56;71.07;99892.50;5092635;28;20470;-66
2022/01/28 02:22:09;;;;;;;24.63;15.70;;;;;;;0.40;71.01;99886.00;5092853;28;20442;-66
2022/01/28 02:24:41;;;;;;;21.07;14.83;;;;;;;0.44;71.37;99896.09;5093133;28;20429;-66
2022/01/28 02:27:09;;;;;;;23.43;13.73;;;;;;;0.47;71.52;99890.63;5092445;28;20987;-66
2022/01/28 02:29:36;;;;;;;15.27;11.83;;;;;;;0.55;71.33;99884.75;5092448;28;20891;-66
2022/01/28 02:32:06;;;;;;;20.60;13.03;;;;;;;0.54;71.11;99870.88;5092410;28;20445;-66
2022/01/28 02:34:33;;;;;;;15.57;11.43;;;;;;;0.59;70.79;99879.19;5092504;28;20472;-65
2022/01/28 02:37:00;;;;;;;14.33;11.80;;;;;;;0.53;70.54;99877.03;5092598;28;20445;-66
2022/01/28 02:39:29;;;;;;;14.30;12.37;;;;;;;0.53;71.11;99874.44;5092633;28;20460;-65
2022/01/28 02:42:02;;;;;;;20.63;12.87;;;;;;;0.60;70.89;99869.56;5092303;28;20492;-65
2022/01/28 02:44:43;;;;;;;18.83;14.03;;;;;;;0.64;70.46;99860.53;5092296;28;20441;-65
2022/01/28 02:47:14;;;;;;;22.43;13.17;;;;;;;0.66;70.11;99849.00;5092378;28;20460;-65
2022/01/28 02:49:42;;;;;;;16.93;12.17;;;;;;;0.58;70.72;99840.94;5092798;28;20433;-65
2022/01/28 02:52:17;;;;;;;16.50;12.10;;;;;;;0.58;70.33;99846.16;5092669;28;20829;-66
2022/01/28 02:54:48;;;;;;;20.00;12.70;;;;;;;0.54;70.14;99839.53;5093283;28;20440;-66
2022/01/28 02:57:19;;;;;;;18.00;12.17;;;;;;;0.53;70.55;99852.72;5092105;28;20433;-66
2022/01/28 02:59:46;;;;;;;14.77;12.00;;;;;;;0.47;70.73;99854.03;5092134;28;20496;-65
2022/01/28 03:02:12;;;;;;;19.27;12.83;;;;;;;0.34;70.94;99850.75;5091909;28;20499;-66
2022/01/28 03:05:02;;;;;;;28.90;16.83;;;;;;;0.16;71.54;99852.22;5091981;28;20965;-66
2022/01/28 03:07:29;;;;;;;27.23;17.73;;;;;;;0.08;72.30;99859.81;5091853;28;20496;-66
2022/01/28 03:13:00;;;;;;;18.30;14.53;;;;;;;0.03;72.32;99857.59;5092037;28;20439;-66
2022/01/28 03:15:26;;;;;;;22.83;14.60;;;;;;;0.09;71.79;99861.50;5092074;28;21011;-66
2022/01/28 03:18:05;;;;;;;18.63;14.37;;;;;;;0.02;71.90;99852.47;5092421;28;20448;-66
2022/01/28 03:20:39;;;;;;;19.27;13.30;;;;;;;-0.09;72.08;99858.56;5092438;28;20434;-66
2022/01/28 03:23:06;;;;;;;14.77;13.03;;;;;;;-0.09;72.94;99863.78;5092474;28;20440;-67
2022/01/28 03:25:36;;;;;;;20.17;12.57;;;;;;;-0.10;72.61;99853.44;5092295;28;20867;-67
2022/01/28 03:28:03;;;;;;;15.93;11.87;;;;;;;-0.08;72.30;99862.00;5092866;28;20888;-68
2022/01/28 03:30:29;;;;;;;15.97;12.07;;;;;;;-0.10;71.92;99853.44;5091970;28;20441;-67
2022/01/28 03:32:56;;;;;;;13.53;11.03;;;;;;;-0.07;72.32;99850.59;5092847;28;20853;-67
2022/01/28 03:35:23;;;;;;;20.00;11.60;;;;;;;-0.03;71.93;99854.63;5092299;28;20534;-67
2022/01/28 03:37:58;;;;;;;16.57;11.77;;;;;;;-0.05;71.96;99851.28;5091983;28;20429;-68
2022/01/28 03:40:24;;;;;;;16.60;12.00;;;;;;;-0.08;72.04;99846.34;5092802;28;20460;-67
2022/01/28 03:42:52;;;;;;;17.00;12.63;;;;;;;-0.06;72.25;99847.03;5091650;28;20927;-67
2022/01/28 03:45:19;;;;;;;13.10;11.53;;;;;;;-0.04;71.89;99852.97;5092130;28;20442;-67
2022/01/28 03:47:46;;;;;;;13.07;11.53;;;;;;;-0.01;71.77;99850.09;5091846;28;20541;-66
2022/01/28 03:50:13;;;;;;;17.27;11.93;;;;;;;-0.03;71.42;99839.78;5091896;28;20437;-67
2022/01/28 03:52:39;;;;;;;16.43;12.40;;;;;;;-0.06;72.54;99845.25;5091780;28;20441;-66
2022/01/28 03:55:07;;;;;;;22.60;12.73;;;;;;;-0.03;72.06;99844.19;5092065;28;20429;-66
2022/01/28 03:57:34;;;;;;;20.13;13.17;;;;;;;0.00;72.02;99834.31;5092093;28;20498;-66
2022/01/28 04:00:02;;;;;;;17.03;13.40;;;;;;;0.01;71.38;99835.97;5091769;28;20490;-66
2022/01/28 04:02:32;;;;;;;17.40;12.33;;;;;;;0.04;71.24;99835.75;5091385;28;20437;-66
2022/01/28 04:13:11;;;;;;;20.30;13.73;;;;;;;-0.15;72.56;99829.50;5092097;28;20434;-65
2022/01/28 04:15:51;;;;;;;19.07;14.10;;;;;;;-0.14;72.75;99825.91;5091324;28;20433;-65
2022/01/28 04:18:17;;;;;;;20.80;13.70;;;;;;;-0.17;72.47;99826.16;5092444;28;20436;-66
2022/01/28 04:20:44;;;;;;;25.00;13.63;;;;;;;-0.18;72.64;99834.94;5095263;28;20437;-66
2022/01/28 04:23:11;;;;;;;20.57;14.37;;;;;;;-0.18;72.62;99840.16;5095429;28;20453;-66
2022/01/28 04:25:37;;;;;;;21.60;14.20;;;;;;;-0.18;72.21;99835.78;5094857;28;20469;-66
2022/01/28 04:28:04;;;;;;;25.33;14.53;;;;;;;-0.19;71.88;99828.88;5094677;28;20999;-66
2022/01/28 04:30:31;;;;;;;26.47;16.47;;;;;;;-0.18;71.95;99825.34;5094917;28;20442;-66
2022/01/28 04:33:00;;;;;;;36.43;20.00;;;;;;;-0.18;72.64;99811.44;5095609;28;20437;-68
2022/01/28 04:35:26;;;;;;;26.77;16.33;;;;;;;-0.14;72.59;99810.25;5095112;28;20472;-65
2022/01/28 04:38:04;;;;;;;23.17;15.80;;;;;;;-0.12;72.58;99808.38;5095724;28;20437;-66
2022/01/28 04:40:36;;;;;;;22.67;15.73;;;;;;;-0.12;72.30;99803.97;5094892;28;20440;-66
2022/01/28 04:43:11;;;;;;;21.73;15.87;;;;;;;-0.23;72.70;99816.22;5094667;28;20444;-66
2022/01/28 04:45:45;;;;;;;29.03;16.47;;;;;;;-0.25;73.18;99815.47;5094772;28;20437;-66
2022/01/28 04:48:22;;;;;;;36.90;20.53;;;;;;;-0.25;72.75;99803.28;5095718;28;20467;-67
2022/01/28 04:51:04;;;;;;;31.97;19.47;;;;;;;-0.37;73.04;99813.84;5094886;28;20652;-67
2022/01/28 04:56:26;;;;;;;24.03;17.10;;;;;;;-0.55;73.70;99799.63;5092534;28;20443;-67
2022/01/28 04:59:09;;;;;;;25.90;18.20;;;;;;;-0.66;74.43;99797.00;5094256;28;21063;-67
2022/01/28 05:02:02;;;;;;;27.90;18.37;;;;;;;-0.63;74.34;99794.16;5094725;28;20510;-67
2022/01/28 05:16:16;;;;;;;34.47;19.87;;;;;;;-0.75;74.69;99785.53;5093863;28;20464;-68
2022/01/28 05:24:40;;;;;;;26.30;18.77;;;;;;;-0.61;74.75;99800.09;5094174;28;20404;-68
2022/01/28 05:27:10;;;;;;;25.83;17.30;;;;;;;-0.61;75.33;99798.31;5093411;28;20477;-68
2022/01/28 05:29:39;;;;;;;31.33;17.53;;;;;;;-0.59;74.84;99793.81;5093281;28;20441;-67
2022/01/28 05:32:06;;;;;;;34.53;18.30;;;;;;;-0.56;75.02;99793.56;5093182;28;20433;-68
2022/01/28 05:34:33;;;;;;;29.53;18.83;;;;;;;-0.55;74.08;99792.63;5093489;28;20975;-66
2022/01/28 05:37:02;;;;;;;37.80;20.33;;;;;;;-0.49;74.31;99801.78;5093340;28;20826;-65
2022/01/28 05:39:28;;;;;;;41.80;24.57;;;;;;;-0.43;74.30;99806.50;5093654;28;20483;-67
2022/01/28 05:41:55;;;;;;;48.93;31.47;;;;;;;-0.42;73.81;99802.94;5094230;28;20565;-69
2022/01/28 05:44:22;;;;;;;47.47;29.77;;;;;;;-0.46;73.56;99798.91;5093077;28;20438;-68
2022/01/28 05:46:52;;;;;;;46.90;28.70;;;;;;;-0.54;74.95;99796.06;5093657;28;20484;-67
2022/01/28 05:49:18;;;;;;;39.33;24.57;;;;;;;-0.50;74.62;99797.47;5093602;28;20441;-64
2022/01/28 05:51:45;;;;;;;44.60;25.97;;;;;;;-0.44;74.52;99792.63;5092862;28;20491;-64
2022/01/28 05:54:13;;;;;;;41.77;25.60;;;;;;;-0.39;74.47;99803.53;5093791;28;20529;-64
2022/01/28 05:56:40;;;;;;;43.13;25.57;;;;;;;-0.32;74.41;99806.50;5092950;28;21033;-64
2022/01/28 05:59:07;;;;;;;43.03;28.17;;;;;;;-0.25;73.80;99812.88;5093026;28;20449;-65
2022/01/28 06:01:33;;;;;;;89.47;41.23;;;;;;;0.48;85.54;99819.09;5093975;28;20429;-65
2022/01/28 06:04:00;;;;;;;72.53;38.10;;;;;;;0.40;75.80;99825.94;5092773;28;20441;-67
2022/01/28 06:06:27;;;;;;;51.33;27.20;;;;;;;0.42;74.73;99818.78;5093020;28;20432;-65
2022/01/28 06:08:55;;;;;;;44.20;27.57;;;;;;;0.34;72.58;99824.63;5092654;28;20445;-64
2022/01/28 06:11:24;;;;;;;52.63;30.00;;;;;;;0.22;73.30;99833.44;5092524;28;20438;-65
2022/01/28 06:13:51;;;;;;;55.37;31.90;;;;;;;0.07;73.55;99828.63;5092779;28;20476;-65
2022/01/28 06:16:19;;;;;;;61.60;33.47;;;;;;;0.01;74.32;99827.34;5090233;28;20481;-64
2022/01/28 06:18:46;;;;;;;79.13;38.07;;;;;;;0.11;73.73;99837.88;5092342;28;20499;-64
2022/01/28 06:21:13;;;;;;;94.30;39.93;;;;;;;0.21;74.38;99831.81;5092449;28;20437;-64
2022/01/28 06:23:39;;;;;;;92.03;42.37;;;;;;;0.43;73.73;99841.34;5092629;28;20442;-64
2022/01/28 06:26:06;;;;;;;96.60;42.27;;;;;;;0.56;72.11;99834.19;5092440;28;20468;-64
2022/01/28 06:28:35;;;;;;;75.23;35.40;;;;;;;0.65;71.08;99830.81;5092257;28;20512;-64
2022/01/28 06:31:01;;;;;;;77.73;38.23;;;;;;;0.56;70.74;99845.44;5092577;28;20433;-65
2022/01/28 06:33:28;;;;;;;104.67;47.57;;;;;;;0.66;70.82;99838.53;5087280;28;21049;-66
2022/01/28 06:35:55;;;;;;;97.27;47.67;;;;;;;0.82;69.87;99838.94;5074987;28;20434;-65
2022/01/28 06:38:22;;;;;;;103.50;48.23;;;;;;;1.05;70.23;99848.31;5092318;28;20437;-64
2022/01/28 06:40:49;;;;;;;88.43;43.83;;;;;;;1.44;69.52;99850.22;5091964;28;21009;-66
2022/01/28 06:43:16;;;;;;;72.23;38.47;;;;;;;1.92;67.61;99848.59;5091433;28;20445;-64
2022/01/28 06:45:44;;;;;;;64.27;37.83;;;;;;;2.31;65.23;99855.63;5092644;28;20432;-65
2022/01/28 06:48:12;;;;;;;83.47;38.47;;;;;;;2.73;65.18;99867.53;5091784;28;20538;-65
2022/01/28 06:50:41;;;;;;;57.60;33.27;;;;;;;3.15;62.47;99857.59;5090255;28;20437;-65
2022/01/28 06:53:09;;;;;;;54.40;31.93;;;;;;;3.63;60.50;99877.50;5091660;28;20472;-66
2022/01/28 06:55:35;;;;;;;49.87;33.73;;;;;;;3.73;58.38;99874.84;5087131;28;20484;-65
2022/01/28 06:58:03;;;;;;;52.67;33.00;;;;;;;3.72;58.49;99868.75;5091689;28;20674;-66
2022/01/28 07:00:34;;;;;;;58.17;37.17;;;;;;;4.04;59.30;99858.66;5091511;28;20476;-65
2022/01/28 07:03:02;;;;;;;58.00;34.20;;;;;;;4.29;57.13;99863.22;5091853;28;20183;-65
2022/01/28 07:05:29;;;;;;;47.30;31.90;;;;;;;4.52;56.78;99861.84;5089634;28;20203;-66
2022/01/28 07:07:56;;;;;;;50.97;32.13;;;;;;;4.83;53.97;99863.13;5071799;28;20279;-66
2022/01/28 07:10:22;;;;;;;42.33;29.90;;;;;;;5.12;55.33;99850.56;5071970;28;20200;-66
2022/01/28 07:12:49;;;;;;;50.83;32.27;;;;;;;5.63;52.71;99861.13;5072017;28;20245;-65
2022/01/28 07:15:16;;;;;;;46.40;30.50;;;;;;;6.09;51.58;99861.72;5072627;28;20232;-65
2022/01/28 07:17:43;;;;;;;58.90;33.07;;;;;;;6.48;49.59;99849.63;5072797;28;20210;-65
2022/01/28 07:20:12;;;;;;;40.50;25.77;;;;;;;6.79;47.63;99853.34;5092055;28;20195;-66
2022/01/28 07:22:38;;;;;;;40.30;22.67;;;;;;;6.70;46.72;99844.56;5091466;28;20248;-65
2022/01/28 07:25:07;;;;;;;33.27;22.27;;;;;;;6.54;47.50;99849.00;5091728;28;20594;-64
2022/01/28 07:27:33;;;;;;;27.00;18.07;;;;;;;6.77;46.48;99845.56;5091442;28;20705;-66
2022/01/28 07:30:00;;;;;;;36.67;19.63;;;;;;;6.57;46.77;99838.94;5092100;28;20648;-65
2022/01/28 07:32:27;;;;;;;35.73;18.87;;;;;;;6.72;47.68;99825.94;5091517;28;20556;-64
2022/01/28 07:34:53;;;;;;;25.07;18.03;;;;;;;7.14;44.69;99829.28;5091773;28;20231;-65
2022/01/28 07:37:21;;;;;;;25.03;17.50;;;;;;;7.61;44.07;99840.75;5091476;28;20238;-64
2022/01/28 07:39:49;;;;;;;28.67;19.50;;;;;;;8.14;42.71;99838.28;5089929;28;20230;-64
2022/01/28 07:42:16;;;;;;;28.13;19.53;;;;;;;8.40;41.48;99823.78;5090374;28;20252;-65
2022/01/28 07:44:43;;;;;;;36.17;23.03;;;;;;;8.35;41.52;99835.88;5090494;28;20241;-66
2022/01/28 07:47:10;;;;;;;49.17;28.37;;;;;;;8.36;43.40;99826.94;5090387;28;20231;-67
2022/01/28 07:49:37;;;;;;;31.57;21.97;;;;;;;8.15;41.96;99816.09;5090406;28;20241;-66
2022/01/28 07:52:05;;;;;;;29.67;21.77;;;;;;;7.83;42.08;99825.00;5090835;28;20249;-65
2022/01/28 07:54:33;;;;;;;42.43;24.13;;;;;;;7.35;43.01;99813.72;5094095;28;20274;-65
2022/01/28 07:57:01;;;;;;;44.27;23.50;;;;;;;6.97;43.52;99811.75;5095811;28;20191;-65
2022/01/28 07:59:27;;;;;;;42.40;23.63;;;;;;;6.90;44.78;99818.72;5095328;28;20281;-67
2022/01/28 08:01:54;;;;;;;36.63;20.00;;;;;;;7.03;62.33;99808.47;5095360;28;20198;-70
2022/01/28 08:04:21;;;;;;;34.87;21.67;;;;;;;7.12;46.07;99833.88;5094796;28;20268;-70
2022/01/28 08:06:47;;;;;;;51.77;22.93;;;;;;;7.12;48.81;99818.88;5095032;28;20235;-70
2022/01/28 08:09:14;;;;;;;38.70;19.53;;;;;;;7.55;51.97;99799.16;5094427;28;20667;-70
2022/01/28 08:11:42;;;;;;;26.37;15.90;;;;;;;7.75;47.93;99803.03;5094955;28;20543;-69
2022/01/28 08:14:10;;;;;;;40.40;19.67;;;;;;;8.01;46.25;99811.53;5095120;28;20188;-71
2022/01/28 08:16:36;;;;;;;35.23;18.83;;;;;;;8.03;43.71;99820.13;5095016;28;20253;-72
2022/01/28 08:19:03;;;;;;;36.83;20.37;;;;;;;8.08;43.88;99823.91;5094836;28;20286;-70
2022/01/28 08:21:30;;;;;;;40.73;19.70;;;;;;;8.12;42.99;99821.72;5095862;28;20199;-72
2022/01/28 08:23:57;;;;;;;36.50;21.73;;;;;;;8.09;42.76;99808.88;5094255;28;20191;-72
2022/01/28 08:26:23;;;;;;;67.10;24.93;;;;;;;7.83;43.69;99814.41;5094632;28;20203;-70
2022/01/28 08:28:51;;;;;;;49.27;24.30;;;;;;;7.67;44.70;99813.66;5094721;28;20219;-69
2022/01/28 08:31:18;;;;;;;45.23;23.27;;;;;;;7.66;44.51;99806.69;5094898;28;20308;-70
2022/01/28 08:33:45;;;;;;;59.27;22.43;;;;;;;7.75;45.00;99808.31;5093884;28;20687;-69
2022/01/28 08:36:12;;;;;;;43.27;22.97;;;;;;;7.73;44.37;99818.25;5094571;28;20614;-68
2022/01/28 08:38:44;;;;;;;40.53;22.97;;;;;;;7.49;44.95;99820.94;5094506;28;20203;-69
2022/01/28 08:41:12;;;;;;;50.10;21.97;;;;;;;7.35;46.35;99821.66;5094674;28;20187;-69
2022/01/28 08:43:39;;;;;;;37.33;20.40;;;;;;;7.29;46.24;99811.75;5094181;28;20202;-70
2022/01/28 08:46:07;;;;;;;48.47;20.30;;;;;;;7.14;47.36;99816.88;5094277;28;20191;-70
2022/01/28 08:48:34;;;;;;;38.43;20.60;;;;;;;6.78;48.16;99809.47;5094079;28;20702;-70
2022/01/28 08:51:01;;;;;;;44.97;21.37;;;;;;;6.58;50.36;99802.84;5091814;28;20195;-70
2022/01/28 08:53:27;;;;;;;31.20;21.20;;;;;;;6.54;49.96;99797.06;5094706;28;20717;-69
2022/01/28 08:55:54;;;;;;;36.83;21.40;;;;;;;6.46;50.56;99804.13;5099484;28;20202;-68
2022/01/28 08:58:21;;;;;;;43.50;23.30;;;;;;;6.40;50.80;99810.06;5104441;28;20261;-69
2022/01/28 09:00:50;;;;;;;53.63;27.00;;;;;;;6.55;50.32;99808.44;5114102;28;20194;-68
2022/01/28 09:03:20;;;;;;;43.03;21.73;;;;;;;6.74;50.26;99808.13;5098032;28;20275;-70
2022/01/28 09:05:47;;;;;;;46.67;21.67;;;;;;;6.76;50.87;99798.22;5092997;28;20246;-69
2022/01/28 09:08:14;;;;;;;46.13;20.57;;;;;;;6.76;50.50;99780.59;5093995;28;20217;-69
2022/01/28 09:10:45;;;;;;;51.63;21.13;;;;;;;6.91;50.87;99778.94;5100545;28;20195;-68
2022/01/28 09:13:23;;;;;;;33.83;20.27;;;;;;;7.03;50.55;99760.94;5114183;28;20595;-69
2022/01/28 09:15:51;;;;;;;43.20;20.53;;;;;;;7.05;49.98;99759.78;5114418;28;20190;-69
2022/01/28 09:18:19;;;;;;;51.73;22.77;;;;;;;6.99;50.49;99754.34;5114377;28;20195;-68
2022/01/28 09:20:46;;;;;;;41.77;22.27;;;;;;;6.98;51.36;99763.25;5114286;28;20186;-70
2022/01/28 09:23:14;;;;;;;57.03;25.03;;;;;;;6.96;51.34;99749.38;5106429;28;20662;-70
2022/01/28 09:25:40;;;;;;;64.50;26.27;;;;;;;7.21;50.92;99745.69;5093864;28;20194;-70
2022/01/28 09:28:08;;;;;;;62.90;24.93;;;;;;;7.54;50.56;99728.75;5103161;28;20210;-70
2022/01/28 09:30:35;;;;;;;63.43;33.03;;;;;;;7.79;47.65;99733.78;5114610;28;20604;-70
2022/01/28 09:33:03;;;;;;;58.93;25.10;;;;;;;8.10;47.88;99731.13;5114121;28;20187;-69
2022/01/28 09:35:31;;;;;;;61.70;23.63;;;;;;;8.40;45.80;99728.50;5105596;28;20232;-69
2022/01/28 09:37:57;;;;;;;53.63;19.67;;;;;;;8.66;45.71;99722.84;5094137;28;20195;-69
2022/01/28 09:40:24;;;;;;;40.80;16.03;;;;;;;8.80;45.35;99724.69;5089995;28;20199;-71
2022/01/28 09:42:52;;;;;;;14.60;6.77;;;;;;;8.74;40.23;99733.38;5093330;28;20195;-69
2022/01/28 09:45:23;;;;;;;6.60;4.87;;;;;;;8.90;38.23;99733.22;5092931;28;20195;-69
2022/01/28 09:47:53;;;;;;;5.60;5.27;;;;;;;9.09;38.73;99725.59;5093665;28;20187;-67
2022/01/28 09:50:21;;;;;;;9.57;6.60;;;;;;;9.24;37.48;99722.94;5098868;28;20198;-69
2022/01/28 09:52:49;;;;;;;7.43;5.03;;;;;;;9.33;36.18;99709.44;5094156;28;20206;-70
2022/01/28 09:55:17;;;;;;;6.00;4.13;;;;;;;9.56;35.93;99696.06;5092898;28;20241;-68
2022/01/28 09:57:45;;;;;;;4.93;4.63;;;;;;;9.79;34.98;99691.44;5093501;28;20197;-69
2022/01/28 10:00:13;;;;;;;7.10;4.23;;;;;;;9.96;34.38;99676.94;5093339;28;20194;-69
2022/01/28 10:02:51;;;;;;;20.77;6.30;;;;;;;10.14;33.52;99674.75;5092382;28;20191;-69
2022/01/28 10:05:20;;;;;;;22.57;5.73;;;;;;;10.32;33.64;99675.13;5092652;28;20195;-69
2022/01/28 10:08:09;;;;;;;24.33;4.73;;;;;;;10.59;33.16;99669.03;5092623;28;20247;-68
2022/01/28 10:10:54;;;;;;;15.03;4.13;;;;;;;10.87;33.18;99664.56;5091467;28;20701;-69
2022/01/28 10:13:26;;;;;;;38.83;5.87;;;;;;;11.25;32.82;99665.81;5091724;28;20196;-68
2022/01/28 10:16:00;;;;;;;11.73;7.03;;;;;;;11.72;32.21;99670.38;5089509;28;20194;-69
2022/01/28 10:18:49;;;;;;;14.60;8.63;;;;;;;12.12;31.15;99654.31;5091691;28;20233;-69
2022/01/28 10:21:33;;;;;;;12.27;5.07;;;;;;;12.76;30.48;99658.06;5092361;28;20255;-69
2022/01/28 10:24:15;;;;;;;13.43;3.77;;;;;;;13.13;29.52;99654.78;5092283;28;20664;-70
2022/01/28 10:26:45;;;;;;;15.30;4.60;;;;;;;13.43;29.57;99655.91;5092054;28;20210;-71
2022/01/28 10:29:14;;;;;;;8.10;4.27;;;;;;;13.52;28.91;99656.53;5092178;28;20217;-71
2022/01/28 10:31:47;;;;;;;12.43;4.03;;;;;;;13.51;29.39;99658.34;5092027;28;20580;-71
2022/01/28 10:34:26;;;;;;;6.83;3.70;;;;;;;13.34;28.45;99643.84;5092404;28;20227;-71
2022/01/28 10:37:08;;;;;;;57.60;6.93;;;;;;;13.15;28.10;99647.38;5092490;28;20183;-70
2022/01/28 10:39:42;;;;;;;13.00;3.17;;;;;;;12.78;27.78;99629.34;5092438;28;20190;-71
2022/01/28 10:42:11;;;;;;;32.37;5.87;;;;;;;12.70;27.77;99629.56;5071861;28;20183;-70
2022/01/28 10:44:52;;;;;;;33.80;4.97;;;;;;;12.56;27.99;99625.28;5082919;28;20202;-70
2022/01/28 10:47:31;;;;;;;25.70;4.57;;;;;;;12.56;28.43;99629.78;5092005;28;20181;-70
2022/01/28 10:49:58;;;;;;;20.33;4.27;;;;;;;12.39;28.39;99624.03;5091865;28;20207;-69
2022/01/28 10:52:32;;;;;;;11.23;4.37;;;;;;;12.41;28.61;99629.19;5092086;28;20194;-69
2022/01/28 10:55:01;;;;;;;35.83;6.47;;;;;;;12.46;28.72;99626.72;5091949;28;20182;-69
2022/01/28 10:57:30;;;;;;;15.10;3.50;;;;;;;12.57;28.95;99636.75;5092212;28;20191;-70
2022/01/28 10:59:58;;;;;;;11.07;3.47;;;;;;;12.55;28.60;99633.47;5091931;28;20217;-69
2022/01/28 11:02:26;;;;;;;4.40;3.50;;;;;;;12.51;28.73;99638.41;5091708;28;20207;-70
2022/01/28 11:04:56;;;;;;;2.93;2.63;;;;;;;12.39;28.96;99634.69;5091598;28;20208;-69
2022/01/28 11:07:23;;;;;;;6.87;3.40;;;;;;;12.39;29.26;99634.69;5091804;28;20187;-69
2022/01/28 11:09:50;;;;;;;9.57;3.20;;;;;;;12.31;29.41;99632.25;5091772;28;20226;-70
2022/01/28 11:12:18;;;;;;;5.33;4.83;;;;;;;12.30;29.67;99635.94;5091753;28;20718;-71
2022/01/28 11:14:45;;;;;;;7.03;4.17;;;;;;;12.20;30.22;99635.50;5090942;28;20629;-67
2022/01/28 11:17:16;;;;;;;7.57;3.80;;;;;;;12.07;30.41;99634.66;5089302;28;20190;-72
2022/01/28 11:19:44;;;;;;;66.83;8.37;;;;;;;12.16;30.48;99638.78;5090619;28;20189;-76
2022/01/28 11:22:30;;;;;;;12.13;5.63;;;;;;;12.10;30.76;99650.22;5090693;28;20229;-70
2022/01/28 11:25:25;;;;;;;5.87;4.17;;;;;;;12.07;30.53;99643.47;5070723;28;20182;-69
2022/01/28 11:27:53;;;;;;;67.53;6.67;;;;;;;12.02;30.67;99637.94;5070311;28;20183;-69
2022/01/28 11:30:25;;;;;;;8.23;4.43;;;;;;;12.08;31.28;99637.09;5075358;28;20226;-70
2022/01/28 11:33:00;;;;;;;5.80;4.70;;;;;;;12.14;31.15;99649.63;5075722;28;20188;-76
2022/01/28 11:35:28;;;;;;;9.83;4.73;;;;;;;12.22;30.70;99636.13;5091894;28;20222;-72
2022/01/28 11:38:01;;;;;;;7.30;3.60;;;;;;;12.22;31.04;99638.78;5092218;28;20201;-71
2022/01/28 11:40:28;;;;;;;5.53;3.60;;;;;;;12.19;31.05;99633.03;5094893;28;20673;-70
2022/01/28 11:43:23;;;;;;;16.87;5.07;;;;;;;12.22;30.92;99636.13;5093775;28;20215;-71
2022/01/28 11:46:06;;;;;;;8.97;5.33;;;;;;;12.21;30.92;99617.69;5095277;28;20198;-71
2022/01/28 11:49:16;;;;;;;8.53;3.80;;;;;;;12.25;31.27;99633.03;5092701;28;20190;-70
2022/01/28 11:51:43;;;;;;;4.50;3.90;;;;;;;12.29;31.23;99628.94;5093431;28;20194;-70
2022/01/28 11:54:12;;;;;;;40.17;5.90;;;;;;;12.43;30.98;99635.09;5094751;28;20252;-71
2022/01/28 11:56:39;;;;;;;10.87;3.93;;;;;;;12.38;31.12;99642.91;5093842;28;20194;-72
2022/01/28 11:59:09;;;;;;;17.13;7.13;;;;;;;12.47;31.16;99645.16;5094446;28;20197;-71
2022/01/28 12:02:08;;;;;;;14.83;4.67;;;;;;;12.54;30.99;99643.28;5092683;28;20195;-71
2022/01/28 12:04:40;;;;;;;10.23;5.10;;;;;;;12.58;31.10;99644.53;5091941;28;20663;-71
2022/01/28 12:07:13;;;;;;;11.80;5.77;;;;;;;12.63;31.43;99631.44;5094715;28;20197;-71
2022/01/28 12:09:40;;;;;;;21.63;5.07;;;;;;;12.88;31.00;99640.44;5093359;28;20214;-71
2022/01/28 12:12:10;;;;;;;40.47;5.20;;;;;;;12.99;30.72;99636.34;5094227;28;20206;-72
2022/01/28 12:15:03;;;;;;;34.97;4.50;;;;;;;13.03;30.95;99627.69;5090535;28;20871;-72
2022/01/28 12:17:48;;;;;;;64.27;7.27;;;;;;;13.05;31.17;99631.00;5095392;28;20183;-71
2022/01/28 12:20:56;;;;;;;27.70;3.80;;;;;;;13.15;30.84;99641.25;5095233;28;20252;-71
2022/01/28 12:23:27;;;;;;;6.03;3.47;;;;;;;13.38;30.62;99637.06;5089672;28;20597;-73
2022/01/28 12:26:00;;;;;;;5.40;2.90;;;;;;;13.36;30.68;99633.78;5095047;28;20183;-74
2022/01/28 12:28:43;;;;;;;7.00;3.33;;;;;;;13.38;31.06;99638.91;5094446;28;20659;-72
2022/01/28 12:31:14;;;;;;;18.10;3.40;;;;;;;13.11;31.66;99640.00;5095334;28;20192;-71
2022/01/28 12:33:43;;;;;;;29.60;5.27;;;;;;;13.01;31.63;99637.78;5094654;28;20218;-72
2022/01/28 12:36:13;;;;;;;15.20;4.20;;;;;;;12.75;31.96;99629.78;5094095;28;20730;-71